Terminal Aerodrome Forecast
Issued by NWS Charleston, WV

Current Version | Previous Version | Text Only | Print | Product List | Glossary Off
Versions: 1 2 3 4 5 6 7 8 9 10 11 12 13 14 15 16 17 18 19 20 21 22 23 24 25 26 27 28

000
FTUS41 KRLX 150900 AAA
TAFEKN
TAF AMD
KEKN 150903Z 1509/1606 17007KT P6SM BKN040
     FM151100 26007KT 5SM -SHRA OVC018
     FM151200 27007G15KT 4SM -SHRA OVC010
     FM151400 29011G20KT 2SM -SHRA OVC008
     FM151700 30012G22KT 4SM -SHRA OVC015
     FM151900 31013G20KT 6SM -SHRA OVC020
     FM152300 31015G23KT P6SM OVC025=

USA.gov is the U.S. government's official web portal to all federal, state and local government web resources and services.